Time;durP1;ratioP1;P1;durP2;ratioP2;P2;SDS_P1;SDS_P2;PMS_P1;PMS_P2;Temp;Humidity;BMP_temperature;BMP_pressure;BME280_temperature;BME280_humidity;BME280_pressure;Samples;Min_cycle;Max_cycle;Signal;HPM_P1;HPM_P2
2023/09/06 00:00:52;;;;;;;;;10.00;8.00;;;;;24.48;63.80;100208.41;5047373;28;45477;-71
2023/09/06 00:03:18;;;;;;;;;9.67;7.67;;;;;24.50;63.17;100195.00;5049255;28;46306;-71
2023/09/06 00:05:44;;;;;;;;;10.00;8.33;;;;;24.55;62.71;100193.97;5055865;28;45574;-74
2023/09/06 00:08:14;;;;;;;;;16.33;10.00;;;;;24.51;63.82;100194.09;5056756;28;45335;-71
2023/09/06 00:10:41;;;;;;;;;11.33;7.67;;;;;24.51;63.67;100192.31;5046651;28;45347;-70
2023/09/06 00:13:08;;;;;;;;;9.67;8.00;;;;;24.44;63.88;100180.06;5051995;28;46295;-71
2023/09/06 00:15:34;;;;;;;;;9.33;8.00;;;;;24.55;63.01;100193.06;5052189;28;45440;-71
2023/09/06 00:18:05;;;;;;;;;11.67;9.00;;;;;24.55;63.11;100190.41;5043969;28;45545;-72
2023/09/06 00:20:34;;;;;;;;;10.00;8.00;;;;;24.55;63.13;100191.28;5056440;28;45348;-72
2023/09/06 00:23:04;;;;;;;;;8.33;8.33;;;;;24.55;62.86;100196.63;5052707;28;46350;-71
2023/09/06 00:25:32;;;;;;;;;13.33;10.00;;;;;24.49;63.23;100195.91;5040095;28;45393;-71
2023/09/06 00:28:01;;;;;;;;;11.00;10.33;;;;;24.50;62.90;100203.00;5056214;28;45479;-71
2023/09/06 00:30:26;;;;;;;;;12.00;11.00;;;;;24.45;63.19;100196.94;5054877;28;45527;-75
2023/09/06 00:32:55;;;;;;;;;9.00;8.33;;;;;24.42;63.69;100208.59;5047322;28;46054;-71
2023/09/06 00:35:25;;;;;;;;;10.33;7.67;;;;;24.31;64.08;100198.28;5041049;28;45628;-71
2023/09/06 00:37:52;;;;;;;;;10.67;8.00;;;;;24.23;64.50;100194.97;5055719;28;45398;-72
2023/09/06 00:40:19;;;;;;;;;9.67;8.33;;;;;24.25;64.48;100186.91;5055378;28;45558;-71
2023/09/06 00:42:52;;;;;;;;;10.00;8.33;;;;;24.36;64.36;100203.47;5046483;28;46262;-71
2023/09/06 00:45:22;;;;;;;;;10.67;8.33;;;;;24.44;63.77;100195.22;5050348;28;45568;-72
2023/09/06 00:47:51;;;;;;;;;9.00;8.00;;;;;24.50;63.29;100200.34;5054615;28;45354;-73
2023/09/06 00:50:18;;;;;;;;;11.67;10.00;;;;;24.45;63.66;100183.59;5049112;28;45437;-71
2023/09/06 00:52:45;;;;;;;;;7.67;7.33;;;;;24.49;63.63;100186.13;5047087;28;45477;-70
2023/09/06 00:55:11;;;;;;;;;8.67;7.00;;;;;24.51;63.28;100181.66;5055635;28;45315;-71
2023/09/06 00:57:40;;;;;;;;;9.00;7.67;;;;;24.50;63.76;100192.34;5054050;28;45688;-71
2023/09/06 01:00:17;;;;;;;;;10.00;9.00;;;;;24.48;64.21;100192.38;5049393;28;45425;-71
2023/09/06 01:02:47;;;;;;;;;9.33;9.33;;;;;24.45;64.06;100192.47;5048180;28;46120;-71
2023/09/06 01:05:14;;;;;;;;;10.00;7.67;;;;;24.44;63.98;100185.41;5055106;28;45468;-71
2023/09/06 01:07:43;;;;;;;;;10.00;9.00;;;;;24.37;64.25;100179.41;5055427;28;45597;-74
2023/09/06 01:10:09;;;;;;;;;7.00;7.00;;;;;24.28;63.96;100162.81;5057586;28;45455;-72
2023/09/06 01:12:35;;;;;;;;;11.33;9.33;;;;;24.35;64.06;100175.00;5058614;28;46068;-71
2023/09/06 01:15:03;;;;;;;;;9.67;8.00;;;;;24.40;63.92;100175.75;5058058;28;45874;-71
2023/09/06 01:17:32;;;;;;;;;9.67;9.00;;;;;24.45;64.04;100178.25;5057958;28;45493;-71
2023/09/06 01:20:09;;;;;;;;;10.00;8.33;;;;;24.36;64.08;100164.28;5059157;28;45485;-74
2023/09/06 01:22:42;;;;;;;;;9.00;7.67;;;;;24.36;63.94;100174.09;5057583;28;46068;-71
2023/09/06 01:25:09;;;;;;;;;9.00;8.33;;;;;24.40;63.83;100175.75;5054591;28;45407;-71
2023/09/06 01:27:35;;;;;;;;;8.33;7.33;;;;;24.31;64.00;100165.34;5052171;28;45316;-71
2023/09/06 01:30:01;;;;;;;;;9.00;8.33;;;;;24.40;63.63;100183.75;5059484;28;45813;-73
2023/09/06 01:32:26;;;;;;;;;9.00;8.00;;;;;24.39;64.15;100179.31;5057621;28;46023;-71
2023/09/06 01:34:54;;;;;;;;;9.33;8.00;;;;;24.41;64.24;100183.72;5058792;28;45259;-72
2023/09/06 01:37:21;;;;;;;;;10.67;8.33;;;;;24.33;64.21;100166.19;5058933;28;45490;-71
2023/09/06 01:39:47;;;;;;;;;12.00;8.33;;;;;24.34;64.39;100174.16;5044971;28;45414;-71
2023/09/06 01:42:12;;;;;;;;;10.00;9.00;;;;;24.32;64.36;100162.66;5055374;28;45433;-71
2023/09/06 01:44:38;;;;;;;;;8.33;8.00;;;;;24.36;64.19;100164.28;5044634;28;45592;-71
2023/09/06 01:47:04;;;;;;;;;12.00;9.33;;;;;24.36;64.38;100166.97;5047600;28;45528;-72
2023/09/06 01:49:29;;;;;;;;;9.00;8.00;;;;;24.36;64.57;100177.63;5055059;28;45258;-71
2023/09/06 01:51:57;;;;;;;;;9.67;8.33;;;;;24.25;65.00;100170.91;5057768;28;46161;-71
2023/09/06 01:54:24;;;;;;;;;8.00;8.00;;;;;24.10;64.66;100162.47;5051254;28;45445;-71
2023/09/06 01:56:49;;;;;;;;;10.00;9.00;;;;;24.18;64.77;100162.22;5050385;28;45344;-73
2023/09/06 01:59:15;;;;;;;;;8.33;7.67;;;;;24.22;64.24;100169.22;5058713;28;45279;-71
2023/09/06 02:01:40;;;;;;;;;9.00;7.33;;;;;24.21;64.48;100162.13;5057277;28;46403;-71
2023/09/06 02:04:06;;;;;;;;;8.00;8.00;;;;;24.24;64.52;100163.84;5058404;28;45437;-71
2023/09/06 02:06:32;;;;;;;;;10.33;8.00;;;;;24.20;64.51;100161.25;5055225;28;45428;-71
2023/09/06 02:08:58;;;;;;;;;8.33;7.33;;;;;24.25;64.82;100173.56;5057924;28;46500;-71
2023/09/06 02:11:23;;;;;;;;;7.00;6.67;;;;;24.24;64.85;100178.03;5042968;28;46079;-71
2023/09/06 02:13:49;;;;;;;;;12.00;9.67;;;;;24.25;64.91;100170.91;5058255;28;45473;-71
2023/09/06 02:16:17;;;;;;;;;11.33;8.33;;;;;24.12;65.43;100181.97;5045653;28;46564;-70
2023/09/06 02:18:43;;;;;;;;;9.00;7.67;;;;;24.04;65.47;100180.47;5055422;28;45407;-71
2023/09/06 02:21:09;;;;;;;;;10.33;9.00;;;;;24.06;64.77;100173.31;5058383;28;45429;-71
2023/09/06 02:23:35;;;;;;;;;9.00;7.33;;;;;24.05;64.63;100163.53;5041075;28;45483;-71
2023/09/06 02:26:03;;;;;;;;;8.33;8.00;;;;;24.10;65.13;100169.59;5050570;28;45430;-72
2023/09/06 02:28:28;;;;;;;;;10.00;8.33;;;;;24.07;64.63;100156.34;5049146;28;45854;-71
2023/09/06 02:30:54;;;;;;;;;6.00;5.33;;;;;24.07;65.17;100161.69;5038538;28;45260;-70
2023/09/06 02:33:19;;;;;;;;;10.00;8.00;;;;;24.04;64.82;100153.81;5055493;28;45719;-71
2023/09/06 02:35:45;;;;;;;;;9.33;7.67;;;;;23.92;65.78;100152.38;5056833;28;45460;-71
2023/09/06 02:38:12;;;;;;;;;8.33;8.00;;;;;23.91;65.39;100150.63;5059038;28;45459;-70
2023/09/06 02:40:41;;;;;;;;;10.00;9.00;;;;;23.96;65.84;100149.56;5057393;28;46122;-71
2023/09/06 02:43:07;;;;;;;;;10.00;8.00;;;;;23.95;65.51;100154.94;5058444;28;45429;-70
2023/09/06 02:45:39;;;;;;;;;11.33;8.00;;;;;23.91;65.40;100135.50;5046981;28;45577;-70
2023/09/06 02:48:12;;;;;;;;;8.67;7.67;;;;;23.93;65.98;100146.97;5038721;28;45446;-70
2023/09/06 02:50:39;;;;;;;;;10.00;8.67;;;;;23.94;65.71;100134.53;5045411;28;47723;-71
2023/09/06 02:53:15;;;;;;;;;9.67;8.33;;;;;23.91;65.57;100127.47;5054007;28;45348;-71
2023/09/06 02:55:41;;;;;;;;;10.67;8.00;;;;;23.93;65.86;100133.66;5058356;28;45475;-71
2023/09/06 02:58:07;;;;;;;;;10.33;9.33;;;;;23.91;65.88;100124.81;5056958;28;45485;-71
2023/09/06 03:00:36;;;;;;;;;10.67;8.00;;;;;23.98;65.40;100128.19;5055397;28;46349;-78
2023/09/06 03:03:05;;;;;;;;;10.33;9.00;;;;;23.89;65.32;100137.34;5057349;28;46168;-76
2023/09/06 03:05:31;;;;;;;;;9.00;8.33;;;;;23.66;66.37;100140.69;5056666;28;45399;-71
2023/09/06 03:07:57;;;;;;;;;10.67;8.33;;;;;23.59;66.58;100145.31;5056510;28;45358;-72
2023/09/06 03:10:23;;;;;;;;;7.00;6.00;;;;;23.46;66.62;100143.06;5056032;28;46379;-70
2023/09/06 03:12:59;;;;;;;;;9.00;7.67;;;;;23.41;66.58;100140.53;5056523;28;45492;-70
2023/09/06 03:15:29;;;;;;;;;7.33;6.00;;;;;23.49;66.34;100154.53;5056743;28;45377;-71
2023/09/06 03:17:58;;;;;;;;;8.00;7.00;;;;;23.59;66.36;100160.47;5040896;28;45487;-71
2023/09/06 03:23:24;;;;;;;;;11.00;8.00;;;;;23.61;65.37;100162.16;5057037;28;45626;-71
2023/09/06 03:25:57;;;;;;;;;8.67;7.67;;;;;23.53;65.16;100148.19;5056612;28;45459;-71
2023/09/06 03:28:25;;;;;;;;;8.00;7.00;;;;;23.58;64.95;100158.72;5056978;28;45617;-70
2023/09/06 03:30:58;;;;;;;;;8.33;6.33;;;;;23.59;64.81;100160.47;5044651;28;46081;-71
2023/09/06 03:33:25;;;;;;;;;6.67;6.67;;;;;23.57;64.17;100147.16;5053016;28;45646;-70
2023/09/06 03:35:51;;;;;;;;;7.33;7.00;;;;;23.64;62.65;100150.53;5055974;28;45317;-71
2023/09/06 03:38:17;;;;;;;;;9.67;8.00;;;;;23.70;63.72;100153.00;5053398;28;45400;-71
2023/09/06 03:40:44;;;;;;;;;7.67;6.00;;;;;23.79;62.86;100151.88;5044152;28;45516;-70
2023/09/06 03:43:19;;;;;;;;;7.67;6.33;;;;;23.87;62.46;100149.84;5045876;28;45415;-71
2023/09/06 03:45:51;;;;;;;;;8.67;7.00;;;;;23.93;62.31;100154.13;5053794;28;45274;-70
2023/09/06 03:48:22;;;;;;;;;7.00;6.33;;;;;24.02;60.51;100148.50;5042892;28;45457;-71
2023/09/06 03:50:53;;;;;;;;;9.00;6.67;;;;;24.13;61.25;100158.81;5055870;28;45373;-71
2023/09/06 03:53:18;;;;;;;;;6.67;6.00;;;;;24.11;62.01;100139.31;5041321;28;45516;-70
2023/09/06 03:55:46;;;;;;;;;8.67;6.67;;;;;24.19;62.14;100154.19;5057000;28;45310;-71
2023/09/06 03:58:12;;;;;;;;;7.67;7.00;;;;;24.16;62.89;100162.28;5056626;28;45516;-71
2023/09/06 04:00:41;;;;;;;;;8.33;7.00;;;;;24.14;62.59;100148.09;5056289;28;46143;-71
2023/09/06 04:03:07;;;;;;;;;6.67;6.00;;;;;24.00;63.00;100151.22;5056256;28;45559;-70
2023/09/06 04:05:34;;;;;;;;;9.67;8.00;;;;;24.06;63.03;100159.97;5056330;28;45485;-71
2023/09/06 04:08:04;;;;;;;;;7.00;6.00;;;;;23.93;63.52;100170.13;5056825;28;45500;-71
2023/09/06 04:10:40;;;;;;;;;8.33;7.00;;;;;23.86;63.52;100172.13;5051797;28;46944;-71
2023/09/06 04:13:07;;;;;;;;;8.33;6.67;;;;;23.73;62.86;100174.25;5052417;28;45287;-71
2023/09/06 04:15:37;;;;;;;;;8.00;7.00;;;;;23.68;62.18;100175.31;5042745;28;45515;-71
2023/09/06 04:18:09;;;;;;;;;8.00;8.00;;;;;23.59;63.08;100163.13;5056834;28;45504;-72
2023/09/06 04:20:36;;;;;;;;;7.00;6.00;;;;;23.60;62.74;100168.41;5041232;28;46265;-71
2023/09/06 04:23:07;;;;;;;;;11.67;7.00;;;;;23.63;61.67;100175.44;5055000;28;45430;-71
2023/09/06 04:25:41;;;;;;;;;7.00;7.00;;;;;23.66;60.71;100171.84;5056148;28;45575;-71
2023/09/06 04:28:07;;;;;;;;;6.00;5.33;;;;;23.60;60.21;100156.88;5046096;28;45728;-71
2023/09/06 04:30:36;;;;;;;;;7.33;6.33;;;;;23.75;60.80;100171.53;5055112;28;45726;-71
2023/09/06 04:33:10;;;;;;;;;7.33;6.33;;;;;23.84;60.60;100178.44;5056271;28;45497;-71
2023/09/06 04:35:43;;;;;;;;;7.00;7.00;;;;;23.87;60.82;100171.19;5046029;28;45573;-70
2023/09/06 04:38:16;;;;;;;;;7.67;6.67;;;;;23.82;60.63;100187.34;5043647;28;45354;-71
2023/09/06 04:40:43;;;;;;;;;7.00;6.33;;;;;23.87;59.98;100181.84;5042187;28;47063;-70
2023/09/06 04:43:09;;;;;;;;;6.33;6.33;;;;;23.84;59.87;100187.31;5056216;28;45516;-71
2023/09/06 04:45:39;;;;;;;;;7.00;6.00;;;;;23.79;59.72;100191.88;5059457;28;45468;-71
2023/09/06 04:48:05;;;;;;;;;8.00;7.00;;;;;23.73;62.00;100187.56;5057721;28;45251;-70
2023/09/06 04:50:31;;;;;;;;;9.33;7.33;;;;;23.61;63.07;100196.81;5058941;28;45445;-71
2023/09/06 04:52:57;;;;;;;;;8.00;7.00;;;;;23.57;62.63;100199.63;5059061;28;45315;-70
2023/09/06 04:55:23;;;;;;;;;9.00;8.00;;;;;23.48;63.36;100197.25;5059712;28;45576;-70
2023/09/06 04:57:49;;;;;;;;;9.67;8.67;;;;;23.52;63.16;100196.22;5050204;28;45573;-70
2023/09/06 05:00:17;;;;;;;;;10.00;8.00;;;;;23.38;63.54;100196.63;5049988;28;45593;-71
2023/09/06 05:02:47;;;;;;;;;8.00;7.00;;;;;23.39;63.84;100204.56;5057733;28;45540;-70
2023/09/06 05:05:16;;;;;;;;;7.33;6.67;;;;;23.29;63.80;100207.53;5059331;28;45996;-70
2023/09/06 05:07:42;;;;;;;;;9.67;8.00;;;;;23.30;64.16;100211.94;5049672;28;45284;-71
2023/09/06 05:10:09;;;;;;;;;8.67;7.00;;;;;23.28;64.29;100206.66;5053846;28;46169;-70
2023/09/06 05:12:36;;;;;;;;;8.00;7.00;;;;;23.19;64.42;100199.78;5044937;28;45620;-71
2023/09/06 05:15:02;;;;;;;;;12.33;10.67;;;;;23.26;63.29;100211.19;5058671;28;45445;-71
2023/09/06 05:17:28;;;;;;;;;13.33;10.00;;;;;23.31;63.04;100208.38;5049063;28;45557;-71
2023/09/06 05:19:54;;;;;;;;;8.67;8.00;;;;;23.33;62.62;100211.88;5053688;28;45531;-71
2023/09/06 05:22:19;;;;;;;;;6.67;6.33;;;;;23.33;62.16;100211.88;5042683;28;45514;-72
2023/09/06 05:24:46;;;;;;;;;11.33;10.00;;;;;23.26;61.26;100204.94;5058840;28;45550;-72
2023/09/06 05:27:12;;;;;;;;;9.00;8.67;;;;;23.21;60.94;100200.63;5058961;28;45477;-73
2023/09/06 05:29:38;;;;;;;;;8.00;6.00;;;;;23.29;60.76;100210.19;5044341;28;46048;-71
2023/09/06 05:32:04;;;;;;;;;6.33;6.00;;;;;23.27;60.25;100212.03;5056366;28;45390;-71
2023/09/06 05:34:29;;;;;;;;;9.00;7.67;;;;;23.30;60.00;100222.59;5053013;28;45549;-71
2023/09/06 05:36:55;;;;;;;;;7.67;7.00;;;;;23.25;59.58;100221.88;5049114;28;45695;-71
2023/09/06 05:39:21;;;;;;;;;8.33;7.00;;;;;23.34;58.99;100234.94;5058520;28;46159;-71
2023/09/06 05:41:48;;;;;;;;;7.00;6.67;;;;;23.37;59.18;100232.19;5057395;28;45590;-71
2023/09/06 05:44:13;;;;;;;;;6.00;5.67;;;;;23.40;58.48;100232.13;5058411;28;45557;-71
2023/09/06 05:46:39;;;;;;;;;8.00;7.00;;;;;23.41;58.69;100218.72;5058321;28;45494;-71
2023/09/06 05:49:05;;;;;;;;;6.33;6.00;;;;;23.45;59.97;100229.31;5058240;28;45903;-71
2023/09/06 05:51:31;;;;;;;;;7.00;7.00;;;;;23.43;59.19;100229.34;5042013;28;45464;-71
2023/09/06 05:54:00;;;;;;;;;8.33;8.33;;;;;23.43;59.14;100226.69;5057502;28;45451;-71
2023/09/06 05:56:25;;;;;;;;;8.00;7.00;;;;;23.50;57.90;100225.59;5057512;28;45570;-72
2023/09/06 05:58:51;;;;;;;;;5.00;5.00;;;;;23.54;57.68;100227.25;5046987;28;45976;-71
2023/09/06 06:01:18;;;;;;;;;9.67;8.67;;;;;23.56;57.95;100230.75;5056513;28;45694;-71
2023/09/06 06:03:43;;;;;;;;;5.00;5.00;;;;;23.57;58.07;100231.63;5052438;28;45618;-71
2023/09/06 06:06:16;;;;;;;;;6.00;6.00;;;;;23.58;57.74;100241.38;5055512;28;45174;-70
2023/09/06 06:08:41;;;;;;;;;6.33;6.00;;;;;23.60;57.56;100243.06;5054485;28;45540;-71
2023/09/06 06:11:11;;;;;;;;;5.67;5.67;;;;;23.60;57.36;100236.88;5057354;28;45503;-71
2023/09/06 06:13:37;;;;;;;;;7.33;6.67;;;;;23.66;56.60;100238.50;5055132;28;45289;-76
2023/09/06 06:16:05;;;;;;;;;5.00;5.00;;;;;23.68;56.80;100236.66;5049391;28;45212;-72
2023/09/06 06:18:30;;;;;;;;;7.33;6.00;;;;;23.77;56.66;100247.94;5056063;28;45596;-70
2023/09/06 06:20:58;;;;;;;;;10.67;8.67;;;;;23.78;57.45;100248.84;5047844;28;45285;-72
2023/09/06 06:23:24;;;;;;;;;7.33;7.33;;;;;23.80;57.72;100255.00;5046422;28;45431;-72
2023/09/06 06:25:50;;;;;;;;;6.00;5.00;;;;;23.85;58.39;100249.53;5062465;28;45814;-71
2023/09/06 06:28:15;;;;;;;;;7.33;6.33;;;;;23.96;58.15;100258.94;5048357;28;46057;-70
2023/09/06 06:30:42;;;;;;;;;9.00;7.33;;;;;24.05;57.67;100247.13;5044548;28;45227;-71
2023/09/06 06:33:08;;;;;;;;;6.00;6.00;;;;;24.23;57.02;100253.69;5046863;28;45495;-72
2023/09/06 06:35:34;;;;;;;;;7.67;7.33;;;;;24.40;56.29;100254.03;5057158;28;45501;-71
2023/09/06 06:38:01;;;;;;;;;7.00;6.00;;;;;24.65;55.80;100252.41;5051377;28;46024;-74
2023/09/06 06:40:27;;;;;;;;;5.33;5.00;;;;;24.95;54.99;100259.41;5042614;28;45440;-71
2023/09/06 06:42:53;;;;;;;;;8.00;6.00;;;;;25.21;54.08;100249.59;5044187;28;45616;-76
2023/09/06 06:45:18;;;;;;;;;7.00;6.00;;;;;25.48;54.19;100252.25;5042846;28;45421;-76
2023/09/06 06:47:44;;;;;;;;;6.00;6.00;;;;;26.21;53.54;100253.97;5049392;28;45420;-74
2023/09/06 06:50:10;;;;;;;;;8.00;6.00;;;;;27.46;50.30;100251.50;5055407;28;45386;-73
2023/09/06 06:52:36;;;;;;;;;6.00;6.00;;;;;28.45;49.06;100243.28;5043896;28;45739;-72
2023/09/06 06:55:06;;;;;;;;;6.33;6.00;;;;;29.55;45.96;100244.84;5044128;28;45461;-69
2023/09/06 06:57:33;;;;;;;;;11.33;9.33;;;;;30.19;45.40;100239.56;5047811;28;45501;-76
2023/09/06 06:59:59;;;;;;;;;7.00;6.67;;;;;30.99;43.98;100250.31;5045323;28;45438;-72
2023/09/06 07:02:24;;;;;;;;;7.00;5.00;;;;;31.71;42.62;100246.78;5040741;28;45299;-71
2023/09/06 07:04:50;;;;;;;;;9.33;7.33;;;;;32.41;42.27;100242.31;5051823;28;45529;-77
2023/09/06 07:07:15;;;;;;;;;5.67;5.00;;;;;33.16;40.50;100242.72;5055749;28;46186;-71
2023/09/06 07:09:41;;;;;;;;;5.00;5.00;;;;;33.98;38.58;100245.09;5048811;28;45357;-72
2023/09/06 07:12:07;;;;;;;;;5.00;5.00;;;;;34.32;37.79;100239.91;5049885;28;45522;-72
2023/09/06 07:14:32;;;;;;;;;8.33;7.67;;;;;35.02;37.41;100248.19;5044367;28;45513;-73
2023/09/06 07:16:58;;;;;;;;;8.00;7.00;;;;;35.60;36.55;100252.75;5063252;28;47013;-72
2023/09/06 07:19:24;;;;;;;;;13.67;13.00;;;;;36.09;35.17;100247.94;5046968;28;45746;-71
2023/09/06 07:21:50;;;;;;;;;7.67;7.00;;;;;36.56;34.73;100251.34;5051173;28;45488;-72
2023/09/06 07:24:15;;;;;;;;;5.67;5.67;;;;;36.92;34.75;100251.97;5056996;28;45337;-72
2023/09/06 07:26:42;;;;;;;;;5.00;4.67;;;;;37.52;33.80;100247.63;5056869;28;46087;-71
2023/09/06 07:29:10;;;;;;;;;7.00;6.00;;;;;37.96;33.32;100247.44;5055814;28;45338;-72
2023/09/06 07:31:35;;;;;;;;;7.00;7.00;;;;;38.35;32.11;100233.94;5056988;28;45469;-72
2023/09/06 07:34:01;;;;;;;;;5.00;4.33;;;;;38.61;31.55;100236.16;5054017;28;45219;-74
2023/09/06 07:36:27;;;;;;;;;5.33;5.33;;;;;39.04;31.72;100234.84;5052398;28;46099;-76
2023/09/06 07:38:55;;;;;;;;;7.33;5.67;;;;;39.49;30.55;100236.94;5043866;28;45374;-72
2023/09/06 07:41:21;;;;;;;;;7.00;5.00;;;;;39.72;30.61;100249.22;5043300;28;45567;-73
2023/09/06 07:43:46;;;;;;;;;6.67;6.00;;;;;40.07;29.49;100241.31;5036800;28;45572;-73
2023/09/06 07:46:12;;;;;;;;;7.00;7.00;;;;;40.34;29.12;100244.03;5055961;28;46092;-72
2023/09/06 07:48:38;;;;;;;;;5.00;5.00;;;;;40.35;28.87;100250.38;5056387;28;45432;-72
2023/09/06 07:51:05;;;;;;;;;6.00;6.00;;;;;41.08;28.44;100252.97;5057120;28;45295;-72
2023/09/06 07:53:31;;;;;;;;;7.33;7.00;;;;;41.48;27.90;100253.44;5056071;28;45509;-71
2023/09/06 07:55:57;;;;;;;;;6.00;6.00;;;;;42.03;27.19;100255.84;5056723;28;45447;-72
2023/09/06 07:58:23;;;;;;;;;7.00;5.67;;;;;42.19;26.60;100262.41;5055004;28;45574;-72
2023/09/06 08:00:50;;;;;;;;;4.00;4.00;;;;;42.71;25.29;100264.94;5056206;28;45494;-73
2023/09/06 08:03:15;;;;;;;;;7.00;7.00;;;;;43.01;26.91;100262.59;5048138;28;45314;-72
2023/09/06 08:05:41;;;;;;;;;5.00;5.00;;;;;43.52;24.45;100259.63;5038763;28;45576;-73
2023/09/06 08:08:11;;;;;;;;;6.67;6.00;;;;;43.02;26.04;100256.94;5055967;28;45813;-72
2023/09/06 08:10:38;;;;;;;;;5.67;5.67;;;;;41.70;27.01;100252.94;5056460;28;45610;-71
2023/09/06 08:13:04;;;;;;;;;6.00;6.00;;;;;40.67;28.32;100249.84;5056187;28;45521;-71
2023/09/06 08:15:35;;;;;;;;;4.33;3.33;;;;;39.63;27.65;100247.38;5042551;28;45489;-73
2023/09/06 08:18:03;;;;;;;;;6.33;4.00;;;;;39.08;26.21;100249.97;5052061;28;45517;-72
2023/09/06 08:20:29;;;;;;;;;3.00;3.00;;;;;38.48;26.12;100250.00;5049440;28;45358;-72
2023/09/06 08:22:55;;;;;;;;;5.00;4.00;;;;;38.20;25.07;100258.00;5042363;28;45586;-71
2023/09/06 08:25:21;;;;;;;;;3.67;3.33;;;;;37.82;24.41;100248.66;5035940;28;45456;-71
2023/09/06 08:27:46;;;;;;;;;4.00;4.00;;;;;38.56;25.17;100259.28;5050598;28;45666;-71
2023/09/06 08:30:15;;;;;;;;;7.67;6.00;;;;;39.50;25.88;100252.34;5042162;28;45500;-71
2023/09/06 08:32:42;;;;;;;;;6.00;5.00;;;;;40.61;26.19;100247.75;5056082;28;45627;-71
2023/09/06 08:35:11;;;;;;;;;3.00;3.00;;;;;41.60;24.32;100240.31;5054685;28;45684;-71
2023/09/06 08:37:38;;;;;;;;;3.33;3.00;;;;;42.33;23.08;100237.06;5055354;28;45513;-71
2023/09/06 08:40:07;;;;;;;;;5.00;5.00;;;;;43.07;22.08;100239.91;5055235;28;45369;-71
2023/09/06 08:42:36;;;;;;;;;4.00;4.00;;;;;42.76;21.63;100236.94;5054719;28;45491;-71
2023/09/06 08:45:07;;;;;;;;;3.00;3.00;;;;;43.49;20.59;100234.16;5038504;28;46223;-71
2023/09/06 08:47:33;;;;;;;;;3.00;3.00;;;;;43.95;19.80;100225.25;5055340;28;45344;-71
2023/09/06 08:49:59;;;;;;;;;2.00;2.00;;;;;44.45;19.95;100217.59;5055324;28;45216;-71
2023/09/06 08:52:25;;;;;;;;;4.00;3.67;;;;;45.07;19.44;100230.41;5055878;28;45339;-71
2023/09/06 08:54:52;;;;;;;;;3.00;3.00;;;;;45.48;19.92;100227.22;5052010;28;46176;-72
2023/09/06 08:57:19;;;;;;;;;3.00;2.67;;;;;44.55;20.38;100225.63;5041322;28;45433;-68
2023/09/06 08:59:47;;;;;;;;;4.33;4.33;;;;;44.83;19.35;100220.44;5054214;28;45411;-71
2023/09/06 09:02:14;;;;;;;;;5.33;4.67;;;;;44.71;18.77;100211.75;5055609;28;45410;-71
2023/09/06 09:04:41;;;;;;;;;4.33;4.33;;;;;44.80;19.20;100221.66;5038205;28;46219;-71
2023/09/06 09:07:09;;;;;;;;;3.67;2.67;;;;;44.45;20.60;100212.97;5055237;28;45412;-71
2023/09/06 09:09:55;;;;;;;;;2.00;1.67;;;;;44.55;19.93;100209.13;5044535;28;45570;-71
2023/09/06 09:12:27;;;;;;;;;4.00;4.00;;;;;45.16;18.76;100215.47;5052013;28;45453;-73
2023/09/06 09:14:54;;;;;;;;;3.67;2.67;;;;;43.98;20.09;100197.38;5054624;28;45472;-71
2023/09/06 09:17:23;;;;;;;;;3.00;3.00;;;;;43.53;20.66;100212.69;5054609;28;45450;-70
2023/09/06 09:19:55;;;;;;;;;3.33;3.33;;;;;43.03;21.18;100211.91;5053758;28;45418;-70
2023/09/06 09:22:24;;;;;;;;;3.67;3.67;;;;;43.81;19.91;100209.50;5054156;28;45394;-71
2023/09/06 09:24:57;;;;;;;;;5.00;4.33;;;;;43.99;19.85;100212.88;5046156;28;45480;-70
2023/09/06 09:27:23;;;;;;;;;3.33;2.00;;;;;43.92;20.61;100211.03;5046442;28;45453;-70
2023/09/06 09:29:49;;;;;;;;;2.00;2.00;;;;;44.22;19.85;100209.34;5054422;28;45484;-71
2023/09/06 09:32:15;;;;;;;;;2.67;2.67;;;;;43.90;18.61;100219.44;5057914;28;45402;-70
2023/09/06 09:34:41;;;;;;;;;4.33;3.67;;;;;44.19;19.52;100207.81;5049008;28;45894;-71
2023/09/06 09:37:10;;;;;;;;;2.67;2.67;;;;;43.88;21.33;100216.88;5052462;28;45327;-70
2023/09/06 09:39:37;;;;;;;;;3.67;3.67;;;;;43.60;21.72;100205.44;5058405;28;45223;-71
2023/09/06 09:42:04;;;;;;;;;3.00;3.00;;;;;43.89;20.31;100202.09;5059369;28;45220;-70
2023/09/06 09:44:30;;;;;;;;;2.33;2.33;;;;;44.42;19.36;100206.97;5057826;28;46063;-70
2023/09/06 09:46:59;;;;;;;;;3.00;3.00;;;;;44.67;19.64;100210.41;5056393;28;45553;-70
2023/09/06 09:49:26;;;;;;;;;4.33;4.33;;;;;44.84;20.21;100198.19;5058103;28;45419;-70
2023/09/06 09:51:52;;;;;;;;;2.67;2.67;;;;;45.20;18.94;100216.81;5057747;28;45550;-70
2023/09/06 09:54:21;;;;;;;;;4.00;3.00;;;;;45.65;19.05;100195.69;5052355;28;45524;-71
2023/09/06 09:57:00;;;;;;;;;3.00;3.00;;;;;45.62;19.12;100198.78;5057663;28;45459;-71
2023/09/06 09:59:27;;;;;;;;;3.33;3.00;;;;;45.69;19.94;100200.84;5053118;28;45484;-71
2023/09/06 10:01:57;;;;;;;;;2.00;2.00;;;;;45.88;18.90;100205.72;5040423;28;45500;-71
2023/09/06 10:04:26;;;;;;;;;4.00;3.00;;;;;45.80;18.15;100206.72;5041113;28;45868;-70
2023/09/06 10:06:54;;;;;;;;;4.00;4.00;;;;;45.80;18.58;100205.84;5057312;28;45459;-71
2023/09/06 10:09:21;;;;;;;;;4.67;4.67;;;;;45.58;18.18;100204.88;5054928;28;45505;-70
2023/09/06 10:11:49;;;;;;;;;6.67;6.00;;;;;45.20;18.79;100211.31;5056922;28;45601;-70
2023/09/06 10:14:17;;;;;;;;;4.00;2.67;;;;;45.31;19.75;100209.19;5051845;28;46179;-71
2023/09/06 10:16:42;;;;;;;;;3.33;3.00;;;;;44.85;19.48;100208.19;5047174;28;45495;-70
2023/09/06 10:19:08;;;;;;;;;3.00;3.00;;;;;45.10;19.56;100215.38;5044231;28;45300;-70
2023/09/06 10:21:34;;;;;;;;;1.00;1.00;;;;;45.08;18.76;100206.44;5054568;28;45286;-70
2023/09/06 10:24:02;;;;;;;;;3.67;2.67;;;;;45.12;19.32;100214.16;5056697;28;45906;-70
2023/09/06 10:26:35;;;;;;;;;3.00;3.00;;;;;44.75;21.17;100217.72;5056878;28;45394;-70
2023/09/06 10:29:01;;;;;;;;;4.33;4.33;;;;;44.23;22.07;100224.78;5042750;28;45380;-71
2023/09/06 10:31:45;;;;;;;;;5.33;5.00;;;;;43.69;23.63;100214.53;5052955;28;45399;-71
2023/09/06 10:34:12;;;;;;;;;4.00;4.00;;;;;43.08;24.82;100211.41;5052365;28;45351;-70
2023/09/06 10:37:00;;;;;;;;;6.33;6.00;;;;;42.59;25.59;100212.25;5040995;28;45540;-71
2023/09/06 10:39:30;;;;;;;;;6.67;6.67;;;;;42.43;25.02;100215.78;5057204;28;45172;-71
2023/09/06 10:42:11;;;;;;;;;4.67;4.67;;;;;42.24;25.41;100213.34;5055842;28;45433;-72
2023/09/06 10:44:55;;;;;;;;;4.00;4.00;;;;;41.83;24.66;100213.22;5056415;28;46092;-70
2023/09/06 10:47:32;;;;;;;;;5.33;4.67;;;;;41.56;25.96;100212.34;5057266;28;45390;-71
2023/09/06 10:50:12;;;;;;;;;4.00;3.33;;;;;41.56;26.07;100211.50;5055222;28;45466;-70
2023/09/06 10:52:41;;;;;;;;;5.67;5.00;;;;;41.62;25.46;100209.00;5057188;28;45644;-70
2023/09/06 10:55:24;;;;;;;;;3.00;3.00;;;;;41.66;24.97;100213.13;5057048;28;45382;-70
2023/09/06 10:57:59;;;;;;;;;3.67;3.67;;;;;41.42;26.01;100213.81;5051836;28;45613;-70
2023/09/06 11:00:30;;;;;;;;;3.67;3.67;;;;;41.34;25.30;100211.88;5056517;28;45474;-70
2023/09/06 11:03:08;;;;;;;;;2.00;2.00;;;;;40.59;25.38;100218.78;5044144;28;45326;-70
2023/09/06 11:05:39;;;;;;;;;4.00;3.67;;;;;39.86;26.71;100215.03;5052861;28;45373;-70
2023/09/06 11:08:08;;;;;;;;;3.00;3.00;;;;;39.11;24.62;100200.47;5044193;28;45464;-70
2023/09/06 11:10:35;;;;;;;;;3.00;3.00;;;;;39.03;24.32;100203.94;5043902;28;45529;-70
2023/09/06 11:13:12;;;;;;;;;3.00;2.33;;;;;39.20;24.81;100191.41;5052892;28;45536;-71
2023/09/06 11:15:39;;;;;;;;;2.00;2.00;;;;;39.05;23.29;100193.72;5040694;28;46237;-71
2023/09/06 11:18:05;;;;;;;;;3.00;3.00;;;;;39.14;24.02;100194.72;5056810;28;45640;-70
2023/09/06 11:20:32;;;;;;;;;3.00;2.00;;;;;39.34;23.97;100192.81;5056864;28;45445;-70
2023/09/06 11:22:59;;;;;;;;;4.67;4.00;;;;;39.21;25.52;100193.13;5056832;28;45456;-70
2023/09/06 11:25:28;;;;;;;;;4.33;4.33;;;;;38.92;27.20;100202.22;5040498;28;45486;-70
2023/09/06 11:27:58;;;;;;;;;6.00;5.33;;;;;38.76;28.49;100191.88;5056760;28;45252;-70
2023/09/06 11:30:26;;;;;;;;;6.00;5.67;;;;;38.76;29.10;100196.50;5056656;28;45491;-70